Time;durP1;ratioP1;P1;durP2;ratioP2;P2;SDS_P1;SDS_P2;PMS_P1;PMS_P2;Temp;Humidity;BMP_temperature;BMP_pressure;BME280_temperature;BME280_humidity;BME280_pressure;Samples;Min_cycle;Max_cycle;Signal;HPM_P1;HPM_P2
2024/02/29 00:01:43;;;;;;;29.50;19.08;;;;;;;8.50;68.15;100859.38;6135454;22;96875;-85
2024/02/29 00:04:09;;;;;;;29.17;18.88;;;;;;;8.52;68.45;100868.94;6136058;22;97056;-85
2024/02/29 00:06:34;;;;;;;34.38;20.02;;;;;;;8.55;68.49;100879.34;6159925;22;97504;-86
2024/02/29 00:09:00;;;;;;;36.08;21.17;;;;;;;8.60;68.71;100881.88;6160477;22;100457;-85
2024/02/29 00:11:26;;;;;;;31.23;19.48;;;;;;;8.65;68.21;100871.34;6159567;22;97225;-86
2024/02/29 00:13:52;;;;;;;30.73;18.65;;;;;;;8.59;68.11;100865.31;6159759;22;96957;-85
2024/02/29 00:16:18;;;;;;;29.25;19.52;;;;;;;8.65;68.02;100864.34;6135246;22;99369;-85
2024/02/29 00:18:45;;;;;;;31.75;19.63;;;;;;;8.60;68.26;100858.31;6160373;22;97592;-84
2024/02/29 00:21:10;;;;;;;34.25;20.80;;;;;;;8.76;67.67;100875.50;6159882;22;97104;-86
2024/02/29 00:23:37;;;;;;;35.33;22.00;;;;;;;8.66;68.23;100879.16;6160153;22;97275;-86
2024/02/29 00:26:02;;;;;;;36.58;22.85;;;;;;;8.56;68.43;100872.38;6160596;22;97214;-85
2024/02/29 00:28:28;;;;;;;35.97;22.95;;;;;;;8.57;68.30;100872.31;6185354;22;100563;-86
2024/02/29 00:30:54;;;;;;;37.17;21.95;;;;;;;8.58;67.68;100862.72;6135367;22;97218;-85
2024/02/29 00:33:20;;;;;;;33.85;21.25;;;;;;;8.47;68.03;100862.91;6135113;22;96895;-85
2024/02/29 00:35:45;;;;;;;35.85;22.30;;;;;;;8.57;68.49;100859.22;6159494;22;100837;-86
2024/02/29 00:38:11;;;;;;;32.17;20.52;;;;;;;8.48;68.57;100855.91;6185024;22;97555;-85
2024/02/29 00:40:37;;;;;;;37.90;21.90;;;;;;;8.46;68.52;100870.78;6135061;22;96770;-86
2024/02/29 00:43:03;;;;;;;37.00;22.95;;;;;;;8.39;68.84;100862.16;6184381;22;96761;-85
2024/02/29 00:45:29;;;;;;;39.03;22.05;;;;;;;8.41;68.83;100857.78;6183321;22;97418;-85
2024/02/29 00:47:54;;;;;;;37.53;21.55;;;;;;;8.30;68.81;100841.38;6158238;22;97905;-86
2024/02/29 00:50:21;;;;;;;36.00;22.80;;;;;;;8.42;68.55;100849.03;6159650;22;96756;-85
2024/02/29 00:52:47;;;;;;;32.03;20.15;;;;;;;8.37;69.04;100862.16;6185935;22;97180;-85
2024/02/29 00:55:13;;;;;;;38.28;22.27;;;;;;;8.16;69.09;100839.81;6185118;22;97880;-85
2024/02/29 00:57:40;;;;;;;36.25;22.33;;;;;;;8.28;68.84;100843.13;6159681;22;97602;-85
2024/02/29 01:00:07;;;;;;;36.78;22.00;;;;;;;8.36;68.75;100854.34;6185198;22;97235;-85
2024/02/29 01:02:33;;;;;;;37.40;22.35;;;;;;;8.42;68.76;100862.13;6186261;22;96813;-85
2024/02/29 01:04:58;;;;;;;34.95;20.35;;;;;;;8.30;68.64;100833.53;6160816;22;99207;-85
2024/02/29 01:07:26;;;;;;;37.22;22.33;;;;;;;8.45;68.37;100858.59;6161047;22;99276;-85
2024/02/29 01:09:51;;;;;;;33.42;20.42;;;;;;;8.43;68.57;100856.00;6187089;22;96693;-86
2024/02/29 01:12:17;;;;;;;36.17;22.10;;;;;;;8.42;68.74;100859.50;6186802;22;96702;-85
2024/02/29 01:14:42;;;;;;;36.47;22.55;;;;;;;8.44;68.69;100855.13;6135726;22;100588;-85
2024/02/29 01:17:08;;;;;;;37.25;21.85;;;;;;;8.42;68.79;100850.78;6136152;22;100263;-84
2024/02/29 01:19:33;;;;;;;37.15;23.02;;;;;;;8.42;68.72;100843.81;6186914;22;96607;-85
2024/02/29 01:22:01;;;;;;;38.08;22.42;;;;;;;8.36;68.68;100847.34;6136135;22;96959;-85
2024/02/29 01:24:27;;;;;;;38.78;20.95;;;;;;;8.39;68.56;100846.47;6186134;22;100779;-85
2024/02/29 01:26:53;;;;;;;41.50;22.38;;;;;;;8.32;68.46;100839.56;6136111;22;100255;-85
2024/02/29 01:29:20;;;;;;;41.13;23.50;;;;;;;7.84;69.38;100803.72;6161550;22;96937;-84
2024/02/29 01:31:46;;;;;;;42.33;24.25;;;;;;;8.25;69.52;100841.44;6161140;22;96938;-85
2024/02/29 01:34:12;;;;;;;37.78;21.95;;;;;;;8.24;69.05;100831.00;6161124;22;101067;-85
2024/02/29 01:36:37;;;;;;;38.25;23.65;;;;;;;8.20;69.43;100839.78;6135950;22;100509;-85
2024/02/29 01:39:03;;;;;;;38.63;21.13;;;;;;;7.94;69.47;100814.88;6161472;22;96821;-85
2024/02/29 01:41:28;;;;;;;33.92;19.63;;;;;;;8.04;69.57;100836.53;6187173;22;96797;-85
2024/02/29 01:43:54;;;;;;;33.15;19.33;;;;;;;7.81;70.28;100844.72;6185805;22;98019;-85
2024/02/29 01:46:20;;;;;;;35.08;19.48;;;;;;;7.82;69.76;100846.44;6186226;22;97224;-86
2024/02/29 01:48:48;;;;;;;31.67;18.67;;;;;;;7.78;70.05;100834.31;6161225;22;97253;-85
2024/02/29 01:51:14;;;;;;;31.20;18.95;;;;;;;7.92;69.75;100848.91;6161239;22;96826;-85
2024/02/29 01:53:40;;;;;;;31.38;18.48;;;;;;;7.89;69.99;100838.50;6186131;22;97890;-84
2024/02/29 01:56:06;;;;;;;31.88;18.95;;;;;;;7.85;69.89;100834.22;6161092;22;100155;-85
2024/02/29 01:58:32;;;;;;;30.33;17.55;;;;;;;8.03;69.38;100837.41;6186554;22;97135;-85
2024/02/29 02:00:58;;;;;;;26.83;17.35;;;;;;;7.94;69.23;100813.16;6161762;22;96689;-85
2024/02/29 02:03:26;;;;;;;27.08;17.27;;;;;;;7.87;68.80;100797.59;6134298;22;100682;-84
2024/02/29 02:05:52;;;;;;;28.25;17.10;;;;;;;7.84;69.26;100790.66;6160791;22;98645;-85
2024/02/29 02:08:17;;;;;;;27.58;18.05;;;;;;;8.00;69.06;100817.44;6160367;22;96711;-85
2024/02/29 02:10:43;;;;;;;25.85;17.38;;;;;;;8.09;69.08;100819.91;6185489;22;97384;-85
2024/02/29 02:13:08;;;;;;;24.10;17.00;;;;;;;8.13;68.71;100832.03;6183137;22;97577;-85
2024/02/29 02:15:34;;;;;;;26.50;16.08;;;;;;;8.14;68.42;100828.53;6160136;22;100537;-85
2024/02/29 02:17:59;;;;;;;29.13;17.65;;;;;;;8.15;68.46;100811.09;6186301;22;97591;-85
2024/02/29 02:20:25;;;;;;;25.77;17.00;;;;;;;7.99;68.58;100775.63;6161363;22;96849;-85
2024/02/29 02:22:50;;;;;;;25.67;17.25;;;;;;;8.23;68.47;100801.38;6160704;22;97689;-85
2024/02/29 02:25:16;;;;;;;29.05;18.98;;;;;;;8.12;67.89;100787.63;6135872;22;100647;-85
2024/02/29 02:27:42;;;;;;;25.40;17.00;;;;;;;8.29;67.91;100808.22;6160942;22;96666;-84
2024/02/29 02:30:08;;;;;;;28.35;18.30;;;;;;;8.15;67.85;100775.34;6136746;22;96795;-84
2024/02/29 02:32:35;;;;;;;27.80;17.63;;;;;;;8.05;68.25;100789.44;6160286;22;100827;-85
2024/02/29 02:35:02;;;;;;;25.00;16.80;;;;;;;7.97;68.49;100773.03;6160478;22;101094;-85
2024/02/29 02:37:27;;;;;;;24.55;17.45;;;;;;;8.13;68.52;100797.19;6159940;22;97187;-84
2024/02/29 02:39:53;;;;;;;25.55;17.42;;;;;;;7.84;68.42;100764.50;6136295;22;96870;-85
2024/02/29 02:42:20;;;;;;;25.45;16.95;;;;;;;8.02;68.50;100793.88;6135973;22;100313;-86
2024/02/29 02:44:45;;;;;;;25.95;16.33;;;;;;;8.04;68.56;100807.78;6186094;22;97394;-85
2024/02/29 02:47:11;;;;;;;22.92;16.23;;;;;;;7.94;68.47;100787.03;6161145;22;97160;-84
2024/02/29 02:49:38;;;;;;;28.23;18.17;;;;;;;7.81;68.86;100790.69;6186561;22;96981;-85
2024/02/29 02:52:04;;;;;;;27.92;17.67;;;;;;;7.90;68.69;100784.47;6161113;22;100869;-85
2024/02/29 02:54:29;;;;;;;24.58;16.45;;;;;;;7.76;69.12;100758.53;6160966;22;100830;-85
2024/02/29 02:56:55;;;;;;;29.55;19.70;;;;;;;7.80;69.33;100773.31;6161006;22;96673;-85
2024/02/29 02:59:20;;;;;;;26.42;17.20;;;;;;;7.98;68.65;100786.97;6161258;22;97147;-85
2024/02/29 03:01:46;;;;;;;34.72;20.20;;;;;;;7.67;69.37;100762.16;6160206;22;100973;-85
2024/02/29 03:04:12;;;;;;;32.55;21.40;;;;;;;7.57;69.65;100770.16;6160929;22;97872;-85
2024/02/29 03:06:38;;;;;;;38.13;23.38;;;;;;;7.57;70.04;100771.03;6161119;22;96668;-85
2024/02/29 03:09:07;;;;;;;31.83;20.92;;;;;;;7.44;70.46;100778.16;6186764;22;96878;-86
2024/02/29 03:11:34;;;;;;;36.97;21.65;;;;;;;7.75;69.69;100779.47;6159998;22;99813;-85
2024/02/29 03:14:00;;;;;;;36.65;24.20;;;;;;;7.77;69.91;100769.88;6160448;22;97434;-85
2024/02/29 03:16:26;;;;;;;39.33;23.60;;;;;;;7.75;69.86;100782.97;6160875;22;97019;-84
2024/02/29 03:18:52;;;;;;;35.15;21.98;;;;;;;7.49;70.71;100772.88;6186679;22;96806;-85
2024/02/29 03:21:18;;;;;;;41.50;23.10;;;;;;;7.42;70.76;100760.81;6185557;22;97819;-85
2024/02/29 03:23:43;;;;;;;40.53;24.08;;;;;;;7.53;70.64;100756.25;6135516;22;100052;-86
2024/02/29 03:26:09;;;;;;;38.38;23.08;;;;;;;7.75;69.78;100763.81;6135333;22;97189;-85
2024/02/29 03:28:35;;;;;;;39.22;24.23;;;;;;;7.75;69.85;100754.22;6160917;22;96785;-85
2024/02/29 03:31:00;;;;;;;39.97;24.35;;;;;;;7.62;70.34;100760.50;6160921;22;100133;-85
2024/02/29 03:33:26;;;;;;;42.85;24.77;;;;;;;7.53;70.96;100756.25;6135559;22;100436;-85
2024/02/29 03:35:52;;;;;;;42.20;24.92;;;;;;;7.47;71.55;100761.59;6160725;22;96639;-85
2024/02/29 03:38:18;;;;;;;42.75;24.95;;;;;;;7.53;71.50;100763.25;6136067;22;96741;-85
2024/02/29 03:40:44;;;;;;;42.65;24.95;;;;;;;7.51;71.38;100736.31;6185672;22;100520;-85
2024/02/29 03:43:10;;;;;;;43.30;24.73;;;;;;;7.52;71.26;100756.31;6160792;22;100180;-85
2024/02/29 03:45:35;;;;;;;41.88;23.88;;;;;;;7.62;71.27;100758.78;6160363;22;97059;-86
2024/02/29 03:48:01;;;;;;;39.13;23.00;;;;;;;7.74;71.05;100757.72;6212785;22;96745;-85
2024/02/29 03:50:27;;;;;;;39.75;23.92;;;;;;;7.60;71.33;100757.06;6185286;22;97948;-85
2024/02/29 03:52:52;;;;;;;44.80;24.90;;;;;;;7.40;71.46;100708.56;6160024;22;100154;-87
2024/02/29 03:55:18;;;;;;;35.20;22.50;;;;;;;7.84;71.21;100758.44;6185992;22;96614;-86
2024/02/29 03:57:44;;;;;;;35.40;22.15;;;;;;;7.93;70.44;100755.66;6160814;22;96708;-86
2024/02/29 04:00:11;;;;;;;42.45;23.83;;;;;;;7.78;71.33;100754.16;6135467;22;100487;-85
2024/02/29 04:02:37;;;;;;;37.58;21.42;;;;;;;7.75;71.34;100751.59;6160005;22;100829;-85
2024/02/29 04:05:07;;;;;;;36.30;21.98;;;;;;;7.69;71.29;100754.31;6135467;22;97139;-85
2024/02/29 04:07:36;;;;;;;42.90;24.35;;;;;;;7.53;72.04;100748.44;6161590;22;96765;-85
2024/02/29 04:10:03;;;;;;;45.90;25.08;;;;;;;7.23;73.08;100739.28;6160203;22;100278;-85
2024/02/29 04:12:32;;;;;;;55.95;25.48;;;;;;;7.18;73.80;100741.09;6160405;22;101241;-85
2024/02/29 04:14:58;;;;;;;47.40;25.70;;;;;;;7.32;73.55;100736.53;6134362;22;96778;-86
2024/02/29 04:17:25;;;;;;;53.85;26.23;;;;;;;7.23;73.93;100741.91;6160396;22;96794;-84
2024/02/29 04:19:51;;;;;;;49.95;26.02;;;;;;;7.38;73.51;100740.81;6185763;22;97814;-85
2024/02/29 04:22:16;;;;;;;51.67;28.20;;;;;;;7.14;73.35;100680.22;6159700;22;100231;-85
2024/02/29 04:24:42;;;;;;;53.05;25.73;;;;;;;7.58;73.36;100741.41;6135553;22;96754;-85
2024/02/29 04:27:07;;;;;;;77.13;28.38;;;;;;;7.43;73.77;100739.88;6186041;22;97285;-85
2024/02/29 04:29:33;;;;;;;69.95;26.92;;;;;;;7.37;73.90;100739.09;6185576;22;97908;-86
2024/02/29 04:32:01;;;;;;;56.85;26.08;;;;;;;7.42;73.71;100742.53;6186394;22;97110;-85
2024/02/29 04:34:27;;;;;;;50.35;27.27;;;;;;;7.41;73.52;100725.09;6160805;22;96940;-85
2024/02/29 04:36:53;;;;;;;54.45;26.70;;;;;;;7.47;73.55;100728.47;6161708;22;97251;-86
2024/02/29 04:39:18;;;;;;;53.55;26.00;;;;;;;7.39;73.86;100738.19;6135987;22;100536;-86
2024/02/29 04:41:45;;;;;;;61.90;27.15;;;;;;;7.31;74.31;100737.44;6161122;22;97524;-85
2024/02/29 04:44:11;;;;;;;121.10;26.70;;;;;;;7.32;74.56;100735.69;6136540;22;97138;-85
2024/02/29 04:46:37;;;;;;;81.93;26.80;;;;;;;7.24;75.00;100735.78;6136146;22;96769;-85
2024/02/29 04:49:02;;;;;;;87.25;29.15;;;;;;;7.23;75.19;100726.22;6136389;22;100808;-84
2024/02/29 04:51:28;;;;;;;88.05;25.02;;;;;;;7.18;74.89;100708.00;6186507;22;96709;-85
2024/02/29 04:53:57;;;;;;;97.20;26.40;;;;;;;7.29;74.85;100713.09;6136579;22;96642;-85
2024/02/29 04:56:23;;;;;;;75.10;26.40;;;;;;;7.25;75.23;100720.09;6187274;22;96748;-86
2024/02/29 04:58:49;;;;;;;156.43;28.15;;;;;;;7.09;76.33;100729.03;6136531;22;100548;-86
2024/02/29 05:01:16;;;;;;;54.75;26.38;;;;;;;7.16;76.58;100719.38;6160017;22;97892;-85
2024/02/29 05:03:42;;;;;;;84.38;25.45;;;;;;;7.11;76.36;100718.56;6134467;22;96634;-86
2024/02/29 05:06:13;;;;;;;59.95;27.05;;;;;;;7.30;75.49;100717.44;6160478;22;96816;-87
2024/02/29 05:08:39;;;;;;;48.40;26.60;;;;;;;7.41;75.57;100719.88;6161049;22;97926;-85
2024/02/29 05:11:08;;;;;;;55.80;25.55;;;;;;;7.43;75.38;100728.56;6135516;22;100370;-85
2024/02/29 05:13:34;;;;;;;126.78;26.02;;;;;;;7.25;76.01;100708.81;6159255;22;96732;-86
2024/02/29 05:16:03;;;;;;;50.13;24.17;;;;;;;7.36;75.74;100709.53;6160453;22;96879;-86
2024/02/29 05:18:28;;;;;;;51.35;24.52;;;;;;;7.52;75.73;100724.97;6134137;22;100636;-84
2024/02/29 05:20:54;;;;;;;67.53;27.10;;;;;;;7.27;75.84;100709.63;6129756;22;100671;-84
2024/02/29 05:23:20;;;;;;;69.55;27.00;;;;;;;7.39;75.92;100714.69;6130225;22;97454;-84
2024/02/29 05:25:45;;;;;;;43.85;25.00;;;;;;;7.57;75.89;100725.75;6129595;22;97217;-84
2024/02/29 05:28:11;;;;;;;194.32;27.48;;;;;;;7.43;75.92;100715.50;6153057;22;97873;-85
2024/02/29 05:30:36;;;;;;;101.78;26.15;;;;;;;7.33;76.42;100720.00;6151678;22;97825;-85
2024/02/29 05:33:02;;;;;;;103.13;26.33;;;;;;;7.16;76.88;100701.97;6126689;22;96629;-85
2024/02/29 05:35:28;;;;;;;52.17;27.00;;;;;;;7.31;76.80;100715.69;6127075;22;97408;-84
2024/02/29 05:37:54;;;;;;;151.15;27.25;;;;;;;7.32;76.74;100720.03;6126665;22;97424;-85
2024/02/29 05:40:20;;;;;;;84.75;26.23;;;;;;;7.33;76.67;100720.00;6126365;22;97222;-84
2024/02/29 05:42:45;;;;;;;118.10;24.77;;;;;;;7.47;76.38;100715.41;6149188;22;96814;-84
2024/02/29 05:45:12;;;;;;;120.28;28.33;;;;;;;7.30;76.29;100711.34;6126818;22;97419;-84
2024/02/29 05:47:38;;;;;;;91.15;25.35;;;;;;;7.36;76.05;100701.69;6101040;22;101196;-84
2024/02/29 05:50:04;;;;;;;134.85;25.17;;;;;;;7.31;76.54;100713.09;6104499;22;100388;-84
2024/02/29 05:52:30;;;;;;;127.82;26.00;;;;;;;7.17;77.26;100727.19;6103681;22;97215;-85
2024/02/29 05:54:56;;;;;;;73.03;27.58;;;;;;;7.20;77.40;100723.66;6181072;22;97307;-84
2024/02/29 05:57:24;;;;;;;129.85;25.33;;;;;;;7.09;77.61;100722.94;6154051;22;97987;-85
2024/02/29 05:59:50;;;;;;;114.25;26.10;;;;;;;6.93;77.91;100717.06;6130011;22;97617;-84
2024/02/29 06:02:16;;;;;;;125.28;28.63;;;;;;;6.92;78.50;100721.44;6103998;22;97095;-81
2024/02/29 06:04:41;;;;;;;149.77;28.15;;;;;;;7.11;78.17;100727.25;6129526;22;96737;-84
2024/02/29 06:07:07;;;;;;;74.85;27.52;;;;;;;7.21;78.02;100717.56;6129855;22;97317;-83
2024/02/29 06:09:35;;;;;;;99.32;26.88;;;;;;;7.16;77.80;100716.78;6104143;22;100960;-82
2024/02/29 06:12:01;;;;;;;94.63;28.45;;;;;;;7.15;77.72;100713.28;6155579;22;97192;-82
2024/02/29 06:14:27;;;;;;;111.30;25.75;;;;;;;7.22;78.02;100722.75;6128695;22;96747;-84
2024/02/29 06:16:52;;;;;;;80.95;26.02;;;;;;;7.29;77.87;100727.91;6181003;22;97620;-84
2024/02/29 06:19:18;;;;;;;57.83;28.20;;;;;;;7.28;77.97;100718.34;6128837;22;97963;-84
2024/02/29 06:21:43;;;;;;;88.18;30.63;;;;;;;7.22;77.47;100701.03;6130181;22;97474;-84
2024/02/29 06:24:09;;;;;;;255.57;28.92;;;;;;;7.05;78.27;100727.34;6128630;22;96866;-84
2024/02/29 06:26:35;;;;;;;91.40;27.70;;;;;;;7.19;78.62;100727.19;6130312;22;100941;-84
2024/02/29 06:29:01;;;;;;;85.88;30.13;;;;;;;7.26;78.28;100719.22;6153675;22;97375;-85
2024/02/29 06:31:26;;;;;;;130.18;28.23;;;;;;;7.36;77.65;100722.59;6154909;22;96733;-84
2024/02/29 06:33:52;;;;;;;160.68;28.48;;;;;;;7.39;77.27;100722.53;6103523;22;97257;-85
2024/02/29 06:36:18;;;;;;;63.85;26.73;;;;;;;7.45;77.67;100724.19;6127525;22;100762;-85
2024/02/29 06:38:43;;;;;;;83.68;29.10;;;;;;;7.34;78.02;100720.88;6127994;22;101137;-87
2024/02/29 06:41:09;;;;;;;69.60;29.20;;;;;;;7.46;77.79;100721.53;6128908;22;97187;-84
2024/02/29 06:43:35;;;;;;;71.70;27.92;;;;;;;7.40;78.02;100715.56;6153286;22;96738;-84
2024/02/29 06:46:04;;;;;;;92.03;30.08;;;;;;;7.28;77.74;100693.09;6129196;22;100509;-85
2024/02/29 06:48:30;;;;;;;123.47;27.98;;;;;;;7.34;78.13;100720.88;6128951;22;100907;-85
2024/02/29 06:50:56;;;;;;;79.38;29.52;;;;;;;7.25;78.27;100717.50;6129720;22;97215;-84
2024/02/29 06:53:21;;;;;;;68.03;30.25;;;;;;;7.24;78.46;100699.22;6102427;22;96887;-85
2024/02/29 06:55:47;;;;;;;226.07;29.98;;;;;;;7.22;78.33;100701.88;6153623;22;100787;-84
2024/02/29 06:58:12;;;;;;;109.68;28.45;;;;;;;7.21;78.61;100712.31;6180684;22;97316;-84
2024/02/29 07:00:39;;;;;;;57.75;28.67;;;;;;;7.30;78.56;100714.84;6154462;22;96740;-81
2024/02/29 07:03:06;;;;;;;103.28;30.02;;;;;;;7.32;78.07;100709.56;6179818;22;96702;-81
2024/02/29 07:05:32;;;;;;;72.88;29.85;;;;;;;7.36;78.26;100703.41;6104125;22;100856;-82
2024/02/29 07:07:57;;;;;;;82.95;30.27;;;;;;;7.42;78.34;100704.19;6153284;22;100088;-80
2024/02/29 07:10:23;;;;;;;65.88;29.83;;;;;;;7.35;77.95;100699.09;6154615;22;96710;-80
2024/02/29 07:12:49;;;;;;;61.92;27.65;;;;;;;7.54;78.06;100715.34;6154821;22;96701;-85
2024/02/29 07:15:15;;;;;;;67.22;28.67;;;;;;;7.45;77.70;100709.38;6152168;22;97855;-82
2024/02/29 07:17:41;;;;;;;97.18;30.58;;;;;;;7.28;78.14;100707.91;6153822;22;97326;-82
2024/02/29 07:20:10;;;;;;;68.88;30.38;;;;;;;7.35;78.30;100706.91;6129245;22;96792;-81
2024/02/29 07:22:35;;;;;;;60.53;28.38;;;;;;;7.53;78.06;100709.25;6175264;22;97306;-82
2024/02/29 07:25:03;;;;;;;65.80;30.33;;;;;;;7.43;77.92;100700.69;6178023;22;97330;-81
2024/02/29 07:27:29;;;;;;;55.25;26.40;;;;;;;7.46;77.86;100698.03;6180255;22;98514;-80
2024/02/29 07:29:54;;;;;;;55.92;29.85;;;;;;;7.50;78.18;100696.22;6180247;22;96619;-82
2024/02/29 07:32:20;;;;;;;75.97;28.65;;;;;;;7.56;77.24;100698.75;6179725;22;96687;-81
2024/02/29 07:34:46;;;;;;;70.20;31.23;;;;;;;7.54;77.79;100697.06;6153470;22;100781;-81
2024/02/29 07:37:11;;;;;;;61.95;29.40;;;;;;;7.58;77.84;100706.56;6128203;22;100289;-81
2024/02/29 07:39:37;;;;;;;62.45;28.65;;;;;;;7.60;77.55;100697.81;6179563;22;97148;-81
2024/02/29 07:42:03;;;;;;;57.50;29.25;;;;;;;7.69;77.37;100689.84;6179346;22;97340;-81
2024/02/29 07:44:29;;;;;;;62.67;28.15;;;;;;;7.79;77.23;100697.53;6128217;22;100481;-82
2024/02/29 07:46:54;;;;;;;57.63;28.17;;;;;;;7.62;77.25;100695.16;6154226;22;97046;-83
2024/02/29 07:49:20;;;;;;;53.70;28.98;;;;;;;7.71;77.17;100692.44;6154056;22;97074;-81
2024/02/29 07:51:46;;;;;;;58.08;28.40;;;;;;;7.70;77.21;100699.38;6153818;22;96881;-81
2024/02/29 07:54:11;;;;;;;51.60;25.70;;;;;;;7.52;77.46;100683.16;6178560;22;97306;-82
2024/02/29 07:56:40;;;;;;;48.95;26.08;;;;;;;7.56;78.01;100688.28;6179282;22;97438;-82
2024/02/29 07:59:06;;;;;;;53.38;24.42;;;;;;;7.57;77.90;100695.25;6152311;22;97160;-82
2024/02/29 08:01:32;;;;;;;48.65;24.38;;;;;;;7.44;78.16;100698.94;6180237;22;97050;-81
2024/02/29 08:03:58;;;;;;;49.30;25.70;;;;;;;7.50;78.50;100685.78;6154436;22;100264;-80
2024/02/29 08:06:24;;;;;;;51.67;24.77;;;;;;;7.72;77.77;100697.63;6130079;22;100609;-80
2024/02/29 08:08:49;;;;;;;49.80;26.65;;;;;;;7.67;77.72;100701.19;6180261;22;96679;-83
2024/02/29 08:11:15;;;;;;;56.40;25.63;;;;;;;7.62;77.73;100687.34;6152920;22;96828;-81
2024/02/29 08:13:40;;;;;;;51.78;24.33;;;;;;;7.63;78.13;100689.09;6152629;22;100470;-81
2024/02/29 08:16:06;;;;;;;49.13;25.77;;;;;;;7.56;78.75;100690.03;6150319;22;100353;-82
2024/02/29 08:18:33;;;;;;;44.72;24.23;;;;;;;7.71;78.02;100692.44;6151834;22;96729;-82
2024/02/29 08:20:58;;;;;;;55.90;26.38;;;;;;;7.66;77.97;100683.81;6180495;22;96788;-82
2024/02/29 08:23:24;;;;;;;47.63;24.25;;;;;;;7.81;77.50;100680.06;6156576;22;97560;-80
2024/02/29 08:25:50;;;;;;;48.13;25.55;;;;;;;7.96;77.00;100689.41;6183020;22;97962;-82
2024/02/29 08:28:15;;;;;;;59.17;24.25;;;;;;;7.77;77.06;100681.03;6183226;22;97320;-81
2024/02/29 08:30:41;;;;;;;54.67;25.42;;;;;;;7.64;78.10;100680.34;6209304;22;97220;-81
2024/02/29 08:33:06;;;;;;;49.65;24.58;;;;;;;7.68;77.96;100669.81;6181432;22;97410;-82
2024/02/29 08:35:32;;;;;;;50.92;27.80;;;;;;;7.67;77.89;100664.63;6131427;22;99234;-82
2024/02/29 08:37:58;;;;;;;53.50;25.27;;;;;;;7.93;77.54;100675.47;6181825;22;97050;-81
2024/02/29 08:40:23;;;;;;;47.38;24.75;;;;;;;7.90;77.71;100669.44;6210280;22;97107;-82
2024/02/29 08:42:51;;;;;;;49.92;23.85;;;;;;;7.97;77.06;100659.75;6182942;22;98288;-82
2024/02/29 08:45:17;;;;;;;47.08;24.40;;;;;;;8.01;76.76;100667.50;6182387;22;97373;-82
2024/02/29 08:47:42;;;;;;;48.40;26.30;;;;;;;7.91;77.11;100666.81;6183060;22;97061;-80
2024/02/29 08:50:08;;;;;;;45.90;24.60;;;;;;;7.78;77.46;100662.69;6183506;22;96803;-82
2024/02/29 08:52:34;;;;;;;50.85;28.05;;;;;;;7.84;77.63;100659.09;6182987;22;97528;-81
2024/02/29 08:55:00;;;;;;;53.38;26.80;;;;;;;7.90;77.49;100652.00;6183389;22;97328;-83
2024/02/29 08:57:26;;;;;;;47.97;25.35;;;;;;;8.05;76.95;100652.63;6183328;22;96950;-83
2024/02/29 08:59:51;;;;;;;58.20;27.63;;;;;;;8.20;76.74;100654.09;6158867;22;97542;-83
2024/02/29 09:02:18;;;;;;;60.47;26.42;;;;;;;8.16;76.76;100651.53;6157445;22;97851;-82
2024/02/29 09:04:44;;;;;;;54.70;27.50;;;;;;;8.18;77.17;100658.50;6180427;22;97362;-82
2024/02/29 09:07:10;;;;;;;61.90;28.35;;;;;;;8.09;76.85;100651.69;6180779;22;96753;-81
2024/02/29 09:09:36;;;;;;;49.92;26.00;;;;;;;7.94;77.07;100640.63;6208783;22;97285;-82
2024/02/29 09:12:06;;;;;;;56.53;27.45;;;;;;;7.97;77.12;100630.97;6181156;22;97325;-82
2024/02/29 09:14:32;;;;;;;55.83;26.73;;;;;;;7.99;77.63;100637.06;6178914;22;97334;-82
2024/02/29 09:16:57;;;;;;;54.45;27.15;;;;;;;8.14;77.11;100637.66;6132055;22;96993;-84
2024/02/29 09:19:23;;;;;;;55.20;25.30;;;;;;;8.14;77.22;100648.09;6158253;22;97286;-82
2024/02/29 09:21:48;;;;;;;56.35;26.20;;;;;;;7.99;77.32;100631.81;6183742;22;97905;-81
2024/02/29 09:24:14;;;;;;;55.42;26.52;;;;;;;8.13;76.98;100635.91;6185198;22;97304;-82
2024/02/29 09:26:39;;;;;;;58.33;27.67;;;;;;;8.31;76.26;100629.44;6134966;22;96927;-82
2024/02/29 09:29:05;;;;;;;56.80;26.55;;;;;;;8.28;76.96;100634.75;6159152;22;96814;-83
2024/02/29 09:31:31;;;;;;;61.45;28.88;;;;;;;8.16;77.42;100627.13;6133645;22;100459;-83
2024/02/29 09:33:56;;;;;;;60.58;28.52;;;;;;;8.12;77.75;100615.03;6158563;22;100313;-82
2024/02/29 09:36:22;;;;;;;65.28;29.35;;;;;;;8.29;77.06;100628.63;6211124;22;97073;-82
2024/02/29 09:38:48;;;;;;;70.07;31.40;;;;;;;8.14;77.64;100629.81;6211204;22;96670;-81
2024/02/29 09:41:15;;;;;;;63.90;27.80;;;;;;;8.29;77.07;100627.75;6181866;22;97427;-82
2024/02/29 09:43:41;;;;;;;64.07;27.58;;;;;;;8.19;77.00;100610.53;6155938;22;100326;-84
2024/02/29 09:46:10;;;;;;;64.13;30.30;;;;;;;8.26;77.46;100607.78;6182669;22;96702;-83
2024/02/29 09:48:38;;;;;;;59.95;28.55;;;;;;;8.19;77.49;100606.16;6186079;22;96967;-82
2024/02/29 09:51:05;;;;;;;62.75;29.88;;;;;;;8.25;77.41;100616.50;6159406;22;97833;-84
2024/02/29 09:53:30;;;;;;;65.32;28.75;;;;;;;8.07;77.81;100607.25;6184452;22;97249;-83
2024/02/29 09:55:56;;;;;;;59.03;29.73;;;;;;;8.04;77.78;100611.69;6184255;22;97065;-83
2024/02/29 09:58:22;;;;;;;59.63;28.00;;;;;;;8.23;77.57;100609.56;6184867;22;97351;-82
2024/02/29 10:00:48;;;;;;;71.60;30.55;;;;;;;8.18;78.15;100614.91;6185005;22;97445;-83
2024/02/29 10:03:16;;;;;;;62.85;29.42;;;;;;;8.27;77.61;100614.72;6134138;22;100662;-82
2024/02/29 10:05:46;;;;;;;65.78;30.17;;;;;;;8.28;77.36;100611.22;6185132;22;96639;-82
2024/02/29 10:08:11;;;;;;;65.32;30.25;;;;;;;8.29;77.62;100610.34;6159211;22;96700;-82
2024/02/29 10:10:37;;;;;;;61.10;30.88;;;;;;;8.35;78.17;100614.59;6183705;22;97434;-83
2024/02/29 10:13:03;;;;;;;76.38;31.67;;;;;;;8.41;77.99;100598.78;6182819;22;97247;-84
2024/02/29 10:15:29;;;;;;;65.13;29.15;;;;;;;8.52;77.68;100593.31;6158574;22;96932;-82
2024/02/29 10:17:59;;;;;;;57.08;26.58;;;;;;;8.62;76.86;100597.47;6184307;22;96850;-83
2024/02/29 10:20:25;;;;;;;59.25;27.83;;;;;;;8.56;77.13;100585.38;6158371;22;100246;-82
2024/02/29 10:22:54;;;;;;;57.08;28.25;;;;;;;8.64;76.79;100586.94;6157818;22;97310;-83
2024/02/29 10:25:21;;;;;;;59.75;26.98;;;;;;;8.61;76.69;100580.91;6156705;22;96781;-82
2024/02/29 10:27:47;;;;;;;63.63;27.00;;;;;;;8.74;77.03;100585.88;6181800;22;97318;-84
2024/02/29 10:30:17;;;;;;;65.20;28.15;;;;;;;8.81;76.00;100583.09;6181336;22;97868;-83
2024/02/29 10:32:45;;;;;;;56.88;27.88;;;;;;;8.78;76.67;100570.03;6157575;22;100369;-82
2024/02/29 10:35:24;;;;;;;72.05;30.10;;;;;;;8.94;76.47;100567.94;6159283;22;97075;-82
2024/02/29 10:37:55;;;;;;;64.88;27.95;;;;;;;9.03;75.57;100567.72;6185080;22;96853;-81
2024/02/29 10:40:22;;;;;;;60.97;27.73;;;;;;;8.87;75.67;100571.59;6158716;22;100243;-83
2024/02/29 10:42:55;;;;;;;62.45;29.13;;;;;;;8.75;75.93;100556.16;6158573;22;100814;-82
2024/02/29 10:45:23;;;;;;;58.95;27.48;;;;;;;8.88;76.48;100546.28;6185061;22;97143;-84
2024/02/29 10:47:52;;;;;;;56.97;28.65;;;;;;;9.05;75.90;100552.00;6159868;22;96716;-82
2024/02/29 10:50:27;;;;;;;60.97;27.75;;;;;;;8.97;75.61;100538.22;6185020;22;97961;-83
2024/02/29 10:53:21;;;;;;;71.78;28.25;;;;;;;9.11;75.18;100535.28;6184922;22;97483;-82
2024/02/29 10:56:02;;;;;;;61.33;27.60;;;;;;;8.95;75.87;100537.38;6117592;22;96794;-82
2024/02/29 10:58:35;;;;;;;61.00;27.17;;;;;;;8.93;75.05;100526.97;6157087;22;97239;-81
2024/02/29 11:01:02;;;;;;;62.63;28.73;;;;;;;8.93;75.56;100526.06;6158876;22;98665;-83
2024/02/29 11:03:29;;;;;;;60.60;28.98;;;;;;;9.02;75.53;100534.59;6181951;22;98073;-82
2024/02/29 11:05:55;;;;;;;66.10;28.38;;;;;;;8.96;76.06;100521.66;6157418;22;97058;-83
2024/02/29 11:08:22;;;;;;;65.88;29.40;;;;;;;9.18;75.08;100524.59;6180440;22;97301;-84
2024/02/29 11:10:51;;;;;;;68.65;29.85;;;;;;;9.18;75.07;100519.34;6183948;22;97901;-82